sensor_id;sensor_type;location;lat;lon;timestamp;temperature;humidity
5059;DHT22;2548;52.050;11.036;2023-08-08T00:01:27;12.30;99.90
5059;DHT22;2548;52.050;11.036;2023-08-08T00:03:54;12.30;99.90
5059;DHT22;2548;52.050;11.036;2023-08-08T00:06:22;12.30;99.90
5059;DHT22;2548;52.050;11.036;2023-08-08T00:08:49;12.40;99.90
5059;DHT22;2548;52.050;11.036;2023-08-08T00:11:18;12.40;99.90
5059;DHT22;2548;52.050;11.036;2023-08-08T00:13:45;12.40;99.90
5059;DHT22;2548;52.050;11.036;2023-08-08T00:16:13;12.30;99.90
5059;DHT22;2548;52.050;11.036;2023-08-08T00:18:40;12.40;99.90
5059;DHT22;2548;52.050;11.036;2023-08-08T00:21:08;12.30;99.90
5059;DHT22;2548;52.050;11.036;2023-08-08T00:23:35;12.30;99.90
5059;DHT22;2548;52.050;11.036;2023-08-08T00:26:03;12.40;99.90
5059;DHT22;2548;52.050;11.036;2023-08-08T00:28:31;12.40;99.90
5059;DHT22;2548;52.050;11.036;2023-08-08T00:30:59;12.40;99.90
5059;DHT22;2548;52.050;11.036;2023-08-08T00:33:26;12.40;99.90
5059;DHT22;2548;52.050;11.036;2023-08-08T00:35:54;12.40;99.90
5059;DHT22;2548;52.050;11.036;2023-08-08T00:38:21;12.40;99.90
5059;DHT22;2548;52.050;11.036;2023-08-08T00:40:48;12.50;99.90
5059;DHT22;2548;52.050;11.036;2023-08-08T00:43:16;12.50;99.90
5059;DHT22;2548;52.050;11.036;2023-08-08T00:45:45;12.50;99.90
5059;DHT22;2548;52.050;11.036;2023-08-08T00:48:13;12.50;99.90
5059;DHT22;2548;52.050;11.036;2023-08-08T00:50:42;12.50;99.90
5059;DHT22;2548;52.050;11.036;2023-08-08T00:53:11;12.50;99.90
5059;DHT22;2548;52.050;11.036;2023-08-08T00:55:39;12.60;99.90
5059;DHT22;2548;52.050;11.036;2023-08-08T00:58:07;12.60;99.90
5059;DHT22;2548;52.050;11.036;2023-08-08T01:00:34;12.60;99.90
5059;DHT22;2548;52.050;11.036;2023-08-08T01:03:03;12.60;99.90
5059;DHT22;2548;52.050;11.036;2023-08-08T01:05:35;12.60;99.90
5059;DHT22;2548;52.050;11.036;2023-08-08T01:08:06;12.60;99.90
5059;DHT22;2548;52.050;11.036;2023-08-08T01:10:37;12.60;99.90
5059;DHT22;2548;52.050;11.036;2023-08-08T01:13:09;12.60;99.90
5059;DHT22;2548;52.050;11.036;2023-08-08T01:15:38;12.70;99.90
5059;DHT22;2548;52.050;11.036;2023-08-08T01:18:09;12.70;99.90
5059;DHT22;2548;52.050;11.036;2023-08-08T01:20:37;12.70;99.90
5059;DHT22;2548;52.050;11.036;2023-08-08T01:23:11;12.70;99.90
5059;DHT22;2548;52.050;11.036;2023-08-08T01:25:41;12.70;99.90
5059;DHT22;2548;52.050;11.036;2023-08-08T01:28:09;12.80;99.90
5059;DHT22;2548;52.050;11.036;2023-08-08T01:30:37;12.80;99.90
5059;DHT22;2548;52.050;11.036;2023-08-08T01:33:05;12.80;99.90
5059;DHT22;2548;52.050;11.036;2023-08-08T01:35:37;12.80;99.90
5059;DHT22;2548;52.050;11.036;2023-08-08T01:38:11;12.70;99.90
5059;DHT22;2548;52.050;11.036;2023-08-08T01:40:40;12.80;99.90
5059;DHT22;2548;52.050;11.036;2023-08-08T01:43:11;12.80;99.90
5059;DHT22;2548;52.050;11.036;2023-08-08T01:45:38;12.80;99.90
5059;DHT22;2548;52.050;11.036;2023-08-08T01:48:07;12.80;99.90
5059;DHT22;2548;52.050;11.036;2023-08-08T01:50:35;12.70;99.90
5059;DHT22;2548;52.050;11.036;2023-08-08T01:53:03;12.70;99.90
5059;DHT22;2548;52.050;11.036;2023-08-08T01:55:30;12.70;99.90
5059;DHT22;2548;52.050;11.036;2023-08-08T01:57:59;12.80;99.90
5059;DHT22;2548;52.050;11.036;2023-08-08T02:00:27;12.80;99.90
5059;DHT22;2548;52.050;11.036;2023-08-08T02:02:54;12.80;99.90
5059;DHT22;2548;52.050;11.036;2023-08-08T02:05:21;12.80;99.90
5059;DHT22;2548;52.050;11.036;2023-08-08T02:07:49;12.80;99.90
5059;DHT22;2548;52.050;11.036;2023-08-08T02:10:16;12.80;99.90
5059;DHT22;2548;52.050;11.036;2023-08-08T02:12:46;12.80;99.90
5059;DHT22;2548;52.050;11.036;2023-08-08T02:15:15;12.80;99.90
5059;DHT22;2548;52.050;11.036;2023-08-08T02:17:42;12.80;99.90
5059;DHT22;2548;52.050;11.036;2023-08-08T02:20:11;12.70;99.90
5059;DHT22;2548;52.050;11.036;2023-08-08T02:22:39;12.80;99.90
5059;DHT22;2548;52.050;11.036;2023-08-08T02:25:07;12.80;99.90
5059;DHT22;2548;52.050;11.036;2023-08-08T02:27:34;12.80;99.90
5059;DHT22;2548;52.050;11.036;2023-08-08T02:30:03;12.80;99.90
5059;DHT22;2548;52.050;11.036;2023-08-08T02:32:31;12.80;99.90
5059;DHT22;2548;52.050;11.036;2023-08-08T02:34:59;12.80;99.90
5059;DHT22;2548;52.050;11.036;2023-08-08T02:37:26;12.80;99.90
5059;DHT22;2548;52.050;11.036;2023-08-08T02:39:54;12.80;99.90
5059;DHT22;2548;52.050;11.036;2023-08-08T02:42:21;12.70;99.90
5059;DHT22;2548;52.050;11.036;2023-08-08T02:44:49;12.70;99.90
5059;DHT22;2548;52.050;11.036;2023-08-08T02:47:16;12.70;99.90
5059;DHT22;2548;52.050;11.036;2023-08-08T02:49:46;12.70;99.90
5059;DHT22;2548;52.050;11.036;2023-08-08T02:52:14;12.70;99.90
5059;DHT22;2548;52.050;11.036;2023-08-08T02:54:41;12.70;99.90
5059;DHT22;2548;52.050;11.036;2023-08-08T02:57:09;12.80;99.90
5059;DHT22;2548;52.050;11.036;2023-08-08T02:59:38;12.80;99.90
5059;DHT22;2548;52.050;11.036;2023-08-08T03:02:07;12.80;99.90
5059;DHT22;2548;52.050;11.036;2023-08-08T03:04:36;12.70;99.90
5059;DHT22;2548;52.050;11.036;2023-08-08T03:07:07;12.70;99.90
5059;DHT22;2548;52.050;11.036;2023-08-08T03:09:36;12.70;99.90
5059;DHT22;2548;52.050;11.036;2023-08-08T03:12:05;12.70;99.90
5059;DHT22;2548;52.050;11.036;2023-08-08T03:14:33;12.70;99.90
5059;DHT22;2548;52.050;11.036;2023-08-08T03:17:03;12.70;99.90
5059;DHT22;2548;52.050;11.036;2023-08-08T03:19:31;12.80;99.90
5059;DHT22;2548;52.050;11.036;2023-08-08T03:22:00;12.70;99.90
5059;DHT22;2548;52.050;11.036;2023-08-08T03:24:29;12.70;99.90
5059;DHT22;2548;52.050;11.036;2023-08-08T03:26:57;12.70;99.90
5059;DHT22;2548;52.050;11.036;2023-08-08T03:29:26;12.70;99.90
5059;DHT22;2548;52.050;11.036;2023-08-08T03:31:55;12.70;99.90
5059;DHT22;2548;52.050;11.036;2023-08-08T03:34:26;12.70;99.90
5059;DHT22;2548;52.050;11.036;2023-08-08T03:36:53;12.70;99.90
5059;DHT22;2548;52.050;11.036;2023-08-08T03:39:22;12.70;99.90
5059;DHT22;2548;52.050;11.036;2023-08-08T03:41:51;12.70;99.90
5059;DHT22;2548;52.050;11.036;2023-08-08T03:44:19;12.70;99.90
5059;DHT22;2548;52.050;11.036;2023-08-08T03:46:46;12.70;99.90
5059;DHT22;2548;52.050;11.036;2023-08-08T03:49:14;12.70;99.90
5059;DHT22;2548;52.050;11.036;2023-08-08T03:51:41;12.80;99.90
5059;DHT22;2548;52.050;11.036;2023-08-08T03:54:09;12.90;99.90
5059;DHT22;2548;52.050;11.036;2023-08-08T03:56:36;12.90;99.90
5059;DHT22;2548;52.050;11.036;2023-08-08T03:59:06;13.00;99.90
5059;DHT22;2548;52.050;11.036;2023-08-08T04:01:33;13.00;99.90
5059;DHT22;2548;52.050;11.036;2023-08-08T04:04:01;13.10;99.90
5059;DHT22;2548;52.050;11.036;2023-08-08T04:06:28;13.10;99.90
5059;DHT22;2548;52.050;11.036;2023-08-08T04:08:56;13.20;99.90
5059;DHT22;2548;52.050;11.036;2023-08-08T04:11:23;13.20;99.90
5059;DHT22;2548;52.050;11.036;2023-08-08T04:13:51;13.30;99.90
5059;DHT22;2548;52.050;11.036;2023-08-08T04:16:20;13.30;99.90
5059;DHT22;2548;52.050;11.036;2023-08-08T04:18:47;13.40;99.90
5059;DHT22;2548;52.050;11.036;2023-08-08T04:21:14;13.40;99.90
5059;DHT22;2548;52.050;11.036;2023-08-08T04:23:42;13.40;99.90
5059;DHT22;2548;52.050;11.036;2023-08-08T04:26:09;13.50;99.90
5059;DHT22;2548;52.050;11.036;2023-08-08T04:28:37;13.50;99.90
5059;DHT22;2548;52.050;11.036;2023-08-08T04:31:04;13.50;99.90
5059;DHT22;2548;52.050;11.036;2023-08-08T04:33:33;13.60;99.90
5059;DHT22;2548;52.050;11.036;2023-08-08T04:36:00;13.60;99.90
5059;DHT22;2548;52.050;11.036;2023-08-08T04:38:28;13.60;99.90
5059;DHT22;2548;52.050;11.036;2023-08-08T04:40:55;13.70;99.90
5059;DHT22;2548;52.050;11.036;2023-08-08T04:43:22;13.70;99.90
5059;DHT22;2548;52.050;11.036;2023-08-08T04:45:50;13.70;99.90
5059;DHT22;2548;52.050;11.036;2023-08-08T04:48:18;13.70;99.90
5059;DHT22;2548;52.050;11.036;2023-08-08T04:50:47;13.70;99.90
5059;DHT22;2548;52.050;11.036;2023-08-08T04:53:14;13.70;99.90
5059;DHT22;2548;52.050;11.036;2023-08-08T04:55:42;13.80;99.90
5059;DHT22;2548;52.050;11.036;2023-08-08T04:58:09;13.80;99.90
5059;DHT22;2548;52.050;11.036;2023-08-08T05:00:37;13.80;99.90
5059;DHT22;2548;52.050;11.036;2023-08-08T05:03:04;13.80;99.90
5059;DHT22;2548;52.050;11.036;2023-08-08T05:05:32;13.80;99.90
5059;DHT22;2548;52.050;11.036;2023-08-08T05:08:01;13.90;99.90
5059;DHT22;2548;52.050;11.036;2023-08-08T05:10:28;13.90;99.90
5059;DHT22;2548;52.050;11.036;2023-08-08T05:12:57;13.90;99.90
5059;DHT22;2548;52.050;11.036;2023-08-08T05:15:24;13.90;99.90
5059;DHT22;2548;52.050;11.036;2023-08-08T05:17:52;13.90;99.90
5059;DHT22;2548;52.050;11.036;2023-08-08T05:20:21;14.00;99.90
5059;DHT22;2548;52.050;11.036;2023-08-08T05:22:49;14.00;99.90
5059;DHT22;2548;52.050;11.036;2023-08-08T05:25:18;14.00;99.90
5059;DHT22;2548;52.050;11.036;2023-08-08T05:27:45;14.00;99.90
5059;DHT22;2548;52.050;11.036;2023-08-08T05:30:13;14.00;99.90
5059;DHT22;2548;52.050;11.036;2023-08-08T05:32:40;14.00;99.90
5059;DHT22;2548;52.050;11.036;2023-08-08T05:35:08;14.00;99.90
5059;DHT22;2548;52.050;11.036;2023-08-08T05:37:36;14.10;99.90
5059;DHT22;2548;52.050;11.036;2023-08-08T05:40:04;14.10;99.90
5059;DHT22;2548;52.050;11.036;2023-08-08T05:42:33;14.10;99.90
5059;DHT22;2548;52.050;11.036;2023-08-08T05:45:01;14.10;99.90
5059;DHT22;2548;52.050;11.036;2023-08-08T05:47:28;14.20;99.90
5059;DHT22;2548;52.050;11.036;2023-08-08T05:49:56;14.20;99.90
5059;DHT22;2548;52.050;11.036;2023-08-08T05:52:23;14.20;99.90
5059;DHT22;2548;52.050;11.036;2023-08-08T05:54:50;14.20;99.90
5059;DHT22;2548;52.050;11.036;2023-08-08T05:57:18;14.30;99.90
5059;DHT22;2548;52.050;11.036;2023-08-08T05:59:48;14.30;99.90
5059;DHT22;2548;52.050;11.036;2023-08-08T06:02:16;14.30;99.90
5059;DHT22;2548;52.050;11.036;2023-08-08T06:04:43;14.30;99.90
5059;DHT22;2548;52.050;11.036;2023-08-08T06:07:11;14.30;99.90
5059;DHT22;2548;52.050;11.036;2023-08-08T06:09:38;14.40;99.90
5059;DHT22;2548;52.050;11.036;2023-08-08T06:12:07;14.40;99.90
5059;DHT22;2548;52.050;11.036;2023-08-08T06:14:34;14.40;99.90
5059;DHT22;2548;52.050;11.036;2023-08-08T06:17:04;14.50;99.90
5059;DHT22;2548;52.050;11.036;2023-08-08T06:19:31;14.50;99.90
5059;DHT22;2548;52.050;11.036;2023-08-08T06:21:59;14.50;99.90
5059;DHT22;2548;52.050;11.036;2023-08-08T06:24:26;14.60;99.90
5059;DHT22;2548;52.050;11.036;2023-08-08T06:26:54;14.60;99.90
5059;DHT22;2548;52.050;11.036;2023-08-08T06:29:21;14.70;99.90
5059;DHT22;2548;52.050;11.036;2023-08-08T06:31:48;14.70;99.90
5059;DHT22;2548;52.050;11.036;2023-08-08T06:34:17;14.80;99.90
5059;DHT22;2548;52.050;11.036;2023-08-08T06:36:45;14.80;99.90
5059;DHT22;2548;52.050;11.036;2023-08-08T06:39:13;14.90;99.90
5059;DHT22;2548;52.050;11.036;2023-08-08T06:41:41;15.00;99.90
5059;DHT22;2548;52.050;11.036;2023-08-08T06:44:09;15.10;99.90
5059;DHT22;2548;52.050;11.036;2023-08-08T06:46:37;15.10;99.90
5059;DHT22;2548;52.050;11.036;2023-08-08T06:49:04;15.20;99.90
5059;DHT22;2548;52.050;11.036;2023-08-08T06:51:34;15.30;99.90
5059;DHT22;2548;52.050;11.036;2023-08-08T06:54:02;15.40;99.90
5059;DHT22;2548;52.050;11.036;2023-08-08T06:56:29;15.40;99.90
5059;DHT22;2548;52.050;11.036;2023-08-08T06:58:57;15.50;99.90
5059;DHT22;2548;52.050;11.036;2023-08-08T07:01:24;15.60;99.90
5059;DHT22;2548;52.050;11.036;2023-08-08T07:03:52;15.60;99.90
5059;DHT22;2548;52.050;11.036;2023-08-08T07:06:19;15.70;99.90
5059;DHT22;2548;52.050;11.036;2023-08-08T07:08:48;15.70;99.90
5059;DHT22;2548;52.050;11.036;2023-08-08T07:11:15;15.70;99.90
5059;DHT22;2548;52.050;11.036;2023-08-08T07:13:43;15.70;99.90
5059;DHT22;2548;52.050;11.036;2023-08-08T07:16:10;15.80;99.90
5059;DHT22;2548;52.050;11.036;2023-08-08T07:18:37;15.80;99.90
5059;DHT22;2548;52.050;11.036;2023-08-08T07:21:05;15.90;99.90
5059;DHT22;2548;52.050;11.036;2023-08-08T07:23:33;16.00;99.90
5059;DHT22;2548;52.050;11.036;2023-08-08T07:26:01;15.90;99.90
5059;DHT22;2548;52.050;11.036;2023-08-08T07:28:29;15.90;99.90
5059;DHT22;2548;52.050;11.036;2023-08-08T07:30:56;16.00;99.90
5059;DHT22;2548;52.050;11.036;2023-08-08T07:33:24;16.00;99.90
5059;DHT22;2548;52.050;11.036;2023-08-08T07:35:51;16.00;99.90
5059;DHT22;2548;52.050;11.036;2023-08-08T07:38:19;16.00;99.90
5059;DHT22;2548;52.050;11.036;2023-08-08T07:40:46;16.10;99.90
5059;DHT22;2548;52.050;11.036;2023-08-08T07:43:16;16.30;99.90
5059;DHT22;2548;52.050;11.036;2023-08-08T07:45:43;16.40;99.90
5059;DHT22;2548;52.050;11.036;2023-08-08T07:48:10;16.50;99.90
5059;DHT22;2548;52.050;11.036;2023-08-08T07:50:38;16.60;99.90
5059;DHT22;2548;52.050;11.036;2023-08-08T07:53:05;16.70;99.90
5059;DHT22;2548;52.050;11.036;2023-08-08T07:55:33;16.60;99.90
5059;DHT22;2548;52.050;11.036;2023-08-08T07:58:00;16.50;99.90
5059;DHT22;2548;52.050;11.036;2023-08-08T08:00:29;16.40;99.90
5059;DHT22;2548;52.050;11.036;2023-08-08T08:02:56;16.50;99.90
5059;DHT22;2548;52.050;11.036;2023-08-08T08:05:24;16.50;99.90
5059;DHT22;2548;52.050;11.036;2023-08-08T08:07:51;16.60;99.90
5059;DHT22;2548;52.050;11.036;2023-08-08T08:10:19;16.60;99.90
5059;DHT22;2548;52.050;11.036;2023-08-08T08:12:46;16.50;99.90
5059;DHT22;2548;52.050;11.036;2023-08-08T08:15:13;16.50;99.90
5059;DHT22;2548;52.050;11.036;2023-08-08T08:17:42;16.50;99.90
5059;DHT22;2548;52.050;11.036;2023-08-08T08:20:10;16.40;99.90
5059;DHT22;2548;52.050;11.036;2023-08-08T08:22:38;16.40;99.90
5059;DHT22;2548;52.050;11.036;2023-08-08T08:25:06;16.60;99.90
5059;DHT22;2548;52.050;11.036;2023-08-08T08:27:35;16.70;99.90
5059;DHT22;2548;52.050;11.036;2023-08-08T08:30:03;16.80;99.90
5059;DHT22;2548;52.050;11.036;2023-08-08T08:32:32;17.00;99.90
5059;DHT22;2548;52.050;11.036;2023-08-08T08:35:04;17.10;99.90
5059;DHT22;2548;52.050;11.036;2023-08-08T08:37:32;17.20;99.90
5059;DHT22;2548;52.050;11.036;2023-08-08T08:40:00;17.40;99.90
5059;DHT22;2548;52.050;11.036;2023-08-08T08:42:28;17.60;99.90
5059;DHT22;2548;52.050;11.036;2023-08-08T08:44:57;17.70;99.90
5059;DHT22;2548;52.050;11.036;2023-08-08T08:47:26;17.80;99.90
5059;DHT22;2548;52.050;11.036;2023-08-08T08:49:54;17.90;99.90
5059;DHT22;2548;52.050;11.036;2023-08-08T08:52:23;18.20;99.90
5059;DHT22;2548;52.050;11.036;2023-08-08T08:54:51;18.40;99.90
5059;DHT22;2548;52.050;11.036;2023-08-08T08:57:20;18.40;99.90
5059;DHT22;2548;52.050;11.036;2023-08-08T08:59:49;18.40;99.90
5059;DHT22;2548;52.050;11.036;2023-08-08T09:02:18;18.30;99.90
5059;DHT22;2548;52.050;11.036;2023-08-08T09:04:45;18.40;99.90
5059;DHT22;2548;52.050;11.036;2023-08-08T09:07:13;18.50;99.90
5059;DHT22;2548;52.050;11.036;2023-08-08T09:09:43;18.40;99.90
5059;DHT22;2548;52.050;11.036;2023-08-08T09:12:11;18.40;99.90
5059;DHT22;2548;52.050;11.036;2023-08-08T09:14:40;18.40;99.90
5059;DHT22;2548;52.050;11.036;2023-08-08T09:17:12;18.50;99.90
5059;DHT22;2548;52.050;11.036;2023-08-08T09:19:42;18.70;99.90
5059;DHT22;2548;52.050;11.036;2023-08-08T09:22:11;18.80;99.90
5059;DHT22;2548;52.050;11.036;2023-08-08T09:24:40;18.70;99.90
5059;DHT22;2548;52.050;11.036;2023-08-08T09:27:09;18.40;99.90
5059;DHT22;2548;52.050;11.036;2023-08-08T09:29:37;18.40;99.90
5059;DHT22;2548;52.050;11.036;2023-08-08T09:32:05;18.60;99.90
5059;DHT22;2548;52.050;11.036;2023-08-08T09:34:33;18.80;99.90
5059;DHT22;2548;52.050;11.036;2023-08-08T09:37:01;18.90;99.90
5059;DHT22;2548;52.050;11.036;2023-08-08T09:39:29;19.00;99.90
5059;DHT22;2548;52.050;11.036;2023-08-08T09:41:57;19.10;99.90
5059;DHT22;2548;52.050;11.036;2023-08-08T09:44:26;19.40;99.90
5059;DHT22;2548;52.050;11.036;2023-08-08T09:46:56;19.30;99.90
5059;DHT22;2548;52.050;11.036;2023-08-08T09:49:23;19.10;99.90
5059;DHT22;2548;52.050;11.036;2023-08-08T09:51:50;18.70;99.90
5059;DHT22;2548;52.050;11.036;2023-08-08T09:54:18;18.50;99.90
5059;DHT22;2548;52.050;11.036;2023-08-08T09:56:48;18.30;99.90
5059;DHT22;2548;52.050;11.036;2023-08-08T09:59:17;18.10;99.90
5059;DHT22;2548;52.050;11.036;2023-08-08T10:01:51;17.90;99.90
5059;DHT22;2548;52.050;11.036;2023-08-08T10:04:19;17.70;99.90
5059;DHT22;2548;52.050;11.036;2023-08-08T10:06:47;17.60;99.90
5059;DHT22;2548;52.050;11.036;2023-08-08T10:09:15;17.50;99.90
5059;DHT22;2548;52.050;11.036;2023-08-08T10:11:44;17.40;99.90
5059;DHT22;2548;52.050;11.036;2023-08-08T10:14:12;17.50;99.90
5059;DHT22;2548;52.050;11.036;2023-08-08T10:16:42;17.50;99.90
5059;DHT22;2548;52.050;11.036;2023-08-08T10:19:22;17.50;99.90
5059;DHT22;2548;52.050;11.036;2023-08-08T10:21:57;17.50;99.90
5059;DHT22;2548;52.050;11.036;2023-08-08T10:24:25;17.40;99.90
5059;DHT22;2548;52.050;11.036;2023-08-08T10:26:53;17.40;99.90
5059;DHT22;2548;52.050;11.036;2023-08-08T10:29:24;17.40;99.90
5059;DHT22;2548;52.050;11.036;2023-08-08T10:31:53;17.50;99.90
5059;DHT22;2548;52.050;11.036;2023-08-08T10:34:36;17.70;99.90
5059;DHT22;2548;52.050;11.036;2023-08-08T10:37:04;17.70;99.90
5059;DHT22;2548;52.050;11.036;2023-08-08T10:39:32;17.50;99.90
5059;DHT22;2548;52.050;11.036;2023-08-08T10:42:03;17.20;99.90
5059;DHT22;2548;52.050;11.036;2023-08-08T10:44:31;16.80;99.90
5059;DHT22;2548;52.050;11.036;2023-08-08T10:47:00;16.50;99.90
5059;DHT22;2548;52.050;11.036;2023-08-08T10:49:29;16.30;99.90
5059;DHT22;2548;52.050;11.036;2023-08-08T10:52:02;16.10;99.90
5059;DHT22;2548;52.050;11.036;2023-08-08T10:54:30;16.00;99.90
5059;DHT22;2548;52.050;11.036;2023-08-08T10:56:59;16.00;99.90
5059;DHT22;2548;52.050;11.036;2023-08-08T10:59:37;16.20;99.90
5059;DHT22;2548;52.050;11.036;2023-08-08T11:02:05;16.40;99.90
5059;DHT22;2548;52.050;11.036;2023-08-08T11:04:35;16.50;99.90
5059;DHT22;2548;52.050;11.036;2023-08-08T11:07:03;16.50;99.90
5059;DHT22;2548;52.050;11.036;2023-08-08T11:09:31;16.50;99.90
5059;DHT22;2548;52.050;11.036;2023-08-08T11:12:01;16.40;99.90
5059;DHT22;2548;52.050;11.036;2023-08-08T11:14:30;16.30;99.90
5059;DHT22;2548;52.050;11.036;2023-08-08T11:16:57;16.00;99.90
5059;DHT22;2548;52.050;11.036;2023-08-08T11:19:25;15.80;99.90
5059;DHT22;2548;52.050;11.036;2023-08-08T11:21:54;15.70;99.90
5059;DHT22;2548;52.050;11.036;2023-08-08T11:24:21;15.70;99.90
5059;DHT22;2548;52.050;11.036;2023-08-08T11:26:49;15.80;99.90
5059;DHT22;2548;52.050;11.036;2023-08-08T11:29:17;16.20;99.90
5059;DHT22;2548;52.050;11.036;2023-08-08T11:31:45;16.50;99.90
5059;DHT22;2548;52.050;11.036;2023-08-08T11:34:16;16.90;99.90
5059;DHT22;2548;52.050;11.036;2023-08-08T11:36:45;17.30;99.90
5059;DHT22;2548;52.050;11.036;2023-08-08T11:39:15;17.60;99.90
5059;DHT22;2548;52.050;11.036;2023-08-08T11:41:42;18.00;99.90
5059;DHT22;2548;52.050;11.036;2023-08-08T11:44:10;18.30;99.90
5059;DHT22;2548;52.050;11.036;2023-08-08T11:46:44;18.60;99.90
5059;DHT22;2548;52.050;11.036;2023-08-08T11:49:14;18.70;99.90
5059;DHT22;2548;52.050;11.036;2023-08-08T11:51:43;18.80;99.90
5059;DHT22;2548;52.050;11.036;2023-08-08T11:54:11;18.90;99.90
5059;DHT22;2548;52.050;11.036;2023-08-08T11:56:42;19.20;99.90
5059;DHT22;2548;52.050;11.036;2023-08-08T11:59:10;19.30;99.90
5059;DHT22;2548;52.050;11.036;2023-08-08T12:01:38;19.40;99.90
5059;DHT22;2548;52.050;11.036;2023-08-08T12:04:07;19.50;99.90
5059;DHT22;2548;52.050;11.036;2023-08-08T12:06:37;19.40;99.90
5059;DHT22;2548;52.050;11.036;2023-08-08T12:09:06;19.20;99.90
5059;DHT22;2548;52.050;11.036;2023-08-08T12:11:34;19.10;99.90
5059;DHT22;2548;52.050;11.036;2023-08-08T12:14:06;19.10;99.90
5059;DHT22;2548;52.050;11.036;2023-08-08T12:16:36;19.00;99.90
5059;DHT22;2548;52.050;11.036;2023-08-08T12:19:07;19.10;99.90
5059;DHT22;2548;52.050;11.036;2023-08-08T12:21:37;19.10;99.90
5059;DHT22;2548;52.050;11.036;2023-08-08T12:24:05;19.30;99.90
5059;DHT22;2548;52.050;11.036;2023-08-08T12:26:33;19.40;99.90
5059;DHT22;2548;52.050;11.036;2023-08-08T12:29:01;19.50;99.90
5059;DHT22;2548;52.050;11.036;2023-08-08T12:31:30;19.60;99.90
5059;DHT22;2548;52.050;11.036;2023-08-08T12:33:58;19.60;99.90
5059;DHT22;2548;52.050;11.036;2023-08-08T12:36:25;19.70;99.90
5059;DHT22;2548;52.050;11.036;2023-08-08T12:38:53;19.70;99.90
5059;DHT22;2548;52.050;11.036;2023-08-08T12:41:20;19.70;99.90
5059;DHT22;2548;52.050;11.036;2023-08-08T12:43:48;19.80;99.90
5059;DHT22;2548;52.050;11.036;2023-08-08T12:46:16;19.90;99.90
5059;DHT22;2548;52.050;11.036;2023-08-08T12:48:46;20.20;99.90
5059;DHT22;2548;52.050;11.036;2023-08-08T12:51:13;20.40;99.90
5059;DHT22;2548;52.050;11.036;2023-08-08T12:53:45;20.40;99.90
5059;DHT22;2548;52.050;11.036;2023-08-08T12:56:13;20.50;99.90
5059;DHT22;2548;52.050;11.036;2023-08-08T12:58:40;20.40;99.90
5059;DHT22;2548;52.050;11.036;2023-08-08T13:01:10;20.30;99.90
5059;DHT22;2548;52.050;11.036;2023-08-08T13:03:38;20.30;99.90
5059;DHT22;2548;52.050;11.036;2023-08-08T13:06:07;20.20;99.90
5059;DHT22;2548;52.050;11.036;2023-08-08T13:08:37;20.20;99.90
5059;DHT22;2548;52.050;11.036;2023-08-08T13:11:05;20.30;99.90
5059;DHT22;2548;52.050;11.036;2023-08-08T13:13:33;20.30;99.90
5059;DHT22;2548;52.050;11.036;2023-08-08T13:16:00;20.50;99.90
5059;DHT22;2548;52.050;11.036;2023-08-08T13:18:32;20.70;99.90
5059;DHT22;2548;52.050;11.036;2023-08-08T13:20:59;20.80;99.90
5059;DHT22;2548;52.050;11.036;2023-08-08T13:23:31;20.70;99.90
5059;DHT22;2548;52.050;11.036;2023-08-08T13:25:59;20.50;99.90
5059;DHT22;2548;52.050;11.036;2023-08-08T13:28:27;20.50;99.90
5059;DHT22;2548;52.050;11.036;2023-08-08T13:30:57;20.50;99.90
5059;DHT22;2548;52.050;11.036;2023-08-08T13:33:25;20.50;99.90
5059;DHT22;2548;52.050;11.036;2023-08-08T13:35:59;20.50;99.90
5059;DHT22;2548;52.050;11.036;2023-08-08T13:38:28;20.50;99.90
5059;DHT22;2548;52.050;11.036;2023-08-08T13:40:59;20.70;99.90
5059;DHT22;2548;52.050;11.036;2023-08-08T13:43:26;20.80;99.90
5059;DHT22;2548;52.050;11.036;2023-08-08T13:45:56;20.80;99.90
5059;DHT22;2548;52.050;11.036;2023-08-08T13:48:24;21.00;99.90
5059;DHT22;2548;52.050;11.036;2023-08-08T13:50:52;21.10;99.90
5059;DHT22;2548;52.050;11.036;2023-08-08T13:53:23;20.90;99.90
5059;DHT22;2548;52.050;11.036;2023-08-08T13:55:52;20.70;99.90
5059;DHT22;2548;52.050;11.036;2023-08-08T13:58:20;20.70;99.90
5059;DHT22;2548;52.050;11.036;2023-08-08T14:00:51;20.80;99.90
5059;DHT22;2548;52.050;11.036;2023-08-08T14:03:19;21.00;99.90
5059;DHT22;2548;52.050;11.036;2023-08-08T14:05:47;21.20;99.90
5059;DHT22;2548;52.050;11.036;2023-08-08T14:08:15;21.30;99.90
5059;DHT22;2548;52.050;11.036;2023-08-08T14:10:43;21.40;99.90
5059;DHT22;2548;52.050;11.036;2023-08-08T14:13:12;21.40;99.90
5059;DHT22;2548;52.050;11.036;2023-08-08T14:15:40;21.40;99.90
5059;DHT22;2548;52.050;11.036;2023-08-08T14:18:08;21.00;99.90
5059;DHT22;2548;52.050;11.036;2023-08-08T14:20:37;20.70;99.90
5059;DHT22;2548;52.050;11.036;2023-08-08T14:23:04;20.40;99.90
5059;DHT22;2548;52.050;11.036;2023-08-08T14:25:32;20.10;99.90
5059;DHT22;2548;52.050;11.036;2023-08-08T14:28:00;19.80;99.90
5059;DHT22;2548;52.050;11.036;2023-08-08T14:30:30;19.60;99.90
5059;DHT22;2548;52.050;11.036;2023-08-08T14:33:04;19.40;99.90
5059;DHT22;2548;52.050;11.036;2023-08-08T14:35:34;19.30;99.90
5059;DHT22;2548;52.050;11.036;2023-08-08T14:38:02;19.10;99.90
5059;DHT22;2548;52.050;11.036;2023-08-08T14:40:29;19.20;99.90
5059;DHT22;2548;52.050;11.036;2023-08-08T14:42:58;19.20;99.90
5059;DHT22;2548;52.050;11.036;2023-08-08T14:45:26;19.10;99.90
5059;DHT22;2548;52.050;11.036;2023-08-08T14:47:55;19.10;99.90
5059;DHT22;2548;52.050;11.036;2023-08-08T14:50:22;19.30;99.90
5059;DHT22;2548;52.050;11.036;2023-08-08T14:52:50;19.70;99.90
5059;DHT22;2548;52.050;11.036;2023-08-08T14:55:18;20.10;99.90
5059;DHT22;2548;52.050;11.036;2023-08-08T14:57:46;20.50;99.90
5059;DHT22;2548;52.050;11.036;2023-08-08T15:00:14;20.60;99.90
5059;DHT22;2548;52.050;11.036;2023-08-08T15:02:42;20.80;99.90
5059;DHT22;2548;52.050;11.036;2023-08-08T15:05:11;20.80;99.90
5059;DHT22;2548;52.050;11.036;2023-08-08T15:07:38;20.80;99.90
5059;DHT22;2548;52.050;11.036;2023-08-08T15:10:07;20.80;99.90
5059;DHT22;2548;52.050;11.036;2023-08-08T15:12:34;20.90;99.90
5059;DHT22;2548;52.050;11.036;2023-08-08T15:15:02;21.00;99.90
5059;DHT22;2548;52.050;11.036;2023-08-08T15:17:30;20.70;99.90
5059;DHT22;2548;52.050;11.036;2023-08-08T15:20:00;20.50;99.90
5059;DHT22;2548;52.050;11.036;2023-08-08T15:22:29;20.30;99.90
5059;DHT22;2548;52.050;11.036;2023-08-08T15:24:57;20.30;99.90
5059;DHT22;2548;52.050;11.036;2023-08-08T15:27:25;20.30;99.90
5059;DHT22;2548;52.050;11.036;2023-08-08T15:29:52;20.20;99.90
5059;DHT22;2548;52.050;11.036;2023-08-08T15:32:20;20.00;99.90
5059;DHT22;2548;52.050;11.036;2023-08-08T15:34:48;19.80;99.90
5059;DHT22;2548;52.050;11.036;2023-08-08T15:37:18;19.80;99.90
5059;DHT22;2548;52.050;11.036;2023-08-08T15:39:48;19.60;99.90
5059;DHT22;2548;52.050;11.036;2023-08-08T15:42:18;19.60;99.90
5059;DHT22;2548;52.050;11.036;2023-08-08T15:44:48;19.40;99.90
5059;DHT22;2548;52.050;11.036;2023-08-08T15:47:16;19.30;99.90
5059;DHT22;2548;52.050;11.036;2023-08-08T15:49:44;19.20;99.90
5059;DHT22;2548;52.050;11.036;2023-08-08T15:52:12;19.10;99.90